METAR AND TAF INFORMATION
METAR FOR EHEH
ADDS - METARS form results

(0700 UTC 08 December 2022)
Data provider http://aviationweather.gov/metar/data/
 
METAR text: EHEH 080655Z AUTO 25006KT 230V340 7000 BR FEW006 OVC023 03/03 Q1008 WHT TEMPO 4000 SHRA SCT006 SCT015CB
Conditions at: EHEH (EINDHOVEN RNLAFB, NL) observed 0655 UTC 08 December 2022
Temperature: 3.0°C (37°F)
Dewpoint: 3.0°C (37°F) [RH = 100%]
Pressure (altimeter): 29.76 inches Hg (1008.0 mb)
Winds: from the WSW (250 degrees) at 7 MPH (6 knots; 3.1 m/s)
Visibility: 4 miles ( 7 km)
Ceiling: 2300 feet AGL
Clouds: few clouds at 600 feet AGL
overcast cloud deck at 2300 feet AGL
Weather: BR  (mist)

METAR text: EHEH 080626Z AUTO 23007KT 220V300 9999 -DZ FEW007 BKN015CB BKN019 03/03 Q1008 WHT TEMPO 4000 SHRA SCT006 SCT015CB
Conditions at: EHEH (EINDHOVEN RNLAFB, NL) observed 0626 UTC 08 December 2022
Temperature: 3.0°C (37°F)
Dewpoint: 3.0°C (37°F) [RH = 100%]
Pressure (altimeter): 29.76 inches Hg (1008.0 mb)
Winds: from the SW (230 degrees) at 8 MPH (7 knots; 3.6 m/s)
Visibility: 6 or more miles (10+ km)
Ceiling: 1500 feet AGL
Clouds: few clouds at 700 feet AGL
broken clouds at 1500 feet AGL
broken clouds at 1900 feet AGL
Weather: -DZ  (light drizzle)

METAR text: EHEH 080625Z AUTO 23007KT 220V300 9999 -DZ FEW010 FEW015CB SCT016 OVC020 03/03 Q1008 REDZ WHT TEMPO 4000 SHRA SCT006 SCT015CB
Conditions at: EHEH (EINDHOVEN RNLAFB, NL) observed 0625 UTC 08 December 2022
Temperature: 3.0°C (37°F)
Dewpoint: 3.0°C (37°F) [RH = 100%]
Pressure (altimeter): 29.76 inches Hg (1008.0 mb)
Winds: from the SW (230 degrees) at 8 MPH (7 knots; 3.6 m/s)
Visibility: 6 or more miles (10+ km)
Ceiling: 2000 feet AGL
Clouds: few clouds at 1000 feet AGL
few clouds at 1500 feet AGL
scattered clouds at 1600 feet AGL
overcast cloud deck at 2000 feet AGL
Weather: -DZ  (light drizzle)

Forecast for: EHEH (EINDHOVEN RNLAFB, NL)
Text: TAF EHEH 080555Z 0806/0912 24004KT 9999 SCT030 BKN045
Forecast period: 0600 to 1600 UTC 08 December 2022
Forecast type: FROM: standard forecast or significant change
Winds: from the WSW (240 degrees) at 5 MPH (4 knots; 2.1 m/s)
Visibility: 6 or more miles (10+ km)
Ceiling: 4500 feet AGL
Clouds: scattered clouds at 3000 feet AGL
broken clouds at 4500 feet AGL
Weather: no significant weather forecast for this period
Text: TEMPO 0806/0815 3000 SHRASN SCT006 SCT015CB
Forecast period: 0600 to 1500 UTC 08 December 2022
Forecast type: TEMPORARY: The following changes expected for less than half the time period
Visibility: 1.86 miles (2.99 km)
Ceiling: at least 12,000 feet AGL
Clouds: scattered clouds at 600 feet AGL
scattered clouds at 1500 feet AGL
Weather: SHRA SHSN  (rain showers, snow showers)
Text: BECMG 0816/0818 18002KT 3500 BR MIFG
Forecast period: 1600 to 1800 UTC 08 December 2022
Forecast type: BECOMING: Conditions expected to become as follows by 1800 UTC 08 December 2022
Winds: from the S (180 degrees) at 2 MPH (2 knots; 1.0 m/s)
Visibility: 2.17 miles (3.49 km)
Ceiling: 4500 feet AGL
Clouds: scattered clouds at 3000 feet AGL
broken clouds at 4500 feet AGL
Weather: BR MIFG  (mist, shallow fog)
Text: BECMG 0818/0820 0500 FG VV000
Forecast period: 1800 UTC 08 December 2022 to 1200 UTC 09 December 2022
Forecast type: BECOMING: Conditions expected to become as follows by 2000 UTC 08 December 2022
Winds: from the S (180 degrees) at 2 MPH (2 knots; 1.0 m/s)
Visibility: 0.31 miles (0.50 km)
Ceiling: indefinite ceiling with vertical visibility of 0 feet AGL
Clouds: obscured sky
Weather: FG  (fog)
Text: PROB40 0909/0912 3000 BR BKN006
Forecast period: 0900 to 1200 UTC 09 December 2022
Forecast type: PROBABLE: 40 percent likelihood of the following during this time
Visibility: 1.86 miles (2.99 km)
Ceiling: 600 feet AGL
Clouds: broken clouds at 600 feet AGL
Weather: BR  (mist)

 AIRPORT MAP

 RUNWAY INFORMATION
Runway 03 Runway length 9843 ft Runway width 148 ft
Runway elevation 73 ft Runway displaced threshold 821 ft Runway heading 35
Runway 21 Runway length 9843 ft Runway width 148 ft
Runway elevation 67 ft Runway displaced threshold 821 ft Runway heading 215

 AIRPORT FREQUENCIES
Type APP Name APP Frequency 123.175 MHZ
Type ATIS Name ATIS Frequency 126.025 MHZ
Type DIR Name DIRECTOR Frequency 124.525 MHZ
Type GND Name GND Frequency 121.925 MHZ
Type TWR Name TWR Frequency 131 MHZ

 AIRPORT NEAR NAVIGATION AIDS
Type NDB Name Eindhoven Frequency 397 KHZ
Type TACAN Name Eindhoven Frequency 117200 KHZ